createdAt,value
2018-08-11T00:00:33.849Z,19.42
2018-08-11T00:03:02.255Z,19.42
2018-08-11T00:05:30.609Z,19.38
2018-08-11T00:07:59.057Z,19.35
2018-08-11T00:10:27.469Z,19.36
2018-08-11T00:12:55.797Z,19.37
2018-08-11T00:15:24.163Z,19.42
2018-08-11T00:17:52.523Z,19.43
2018-08-11T00:20:25.088Z,19.42
2018-08-11T00:22:53.451Z,19.42
2018-08-11T00:25:21.972Z,19.44
2018-08-11T00:27:50.370Z,19.44
2018-08-11T00:30:20.776Z,19.44
2018-08-11T00:32:49.192Z,19.46
2018-08-11T00:35:17.516Z,19.47
2018-08-11T00:37:46.176Z,19.49
2018-08-11T00:40:16.711Z,19.50
2018-08-11T00:42:46.307Z,19.52
2018-08-11T00:45:15.505Z,19.50
2018-08-11T00:47:43.999Z,19.52
2018-08-11T00:50:16.053Z,19.55
2018-08-11T00:52:44.428Z,19.59
2018-08-11T00:55:13.724Z,19.62
2018-08-11T00:57:42.441Z,19.64
2018-08-11T01:00:14.088Z,19.64
2018-08-11T01:02:42.878Z,19.59
2018-08-11T01:05:13.796Z,19.59
2018-08-11T01:07:42.734Z,19.57
2018-08-11T01:10:11.886Z,19.55
2018-08-11T01:12:41.315Z,19.54
2018-08-11T01:15:12.125Z,19.53
2018-08-11T01:17:40.495Z,19.50
2018-08-11T01:20:10.021Z,19.45
2018-08-11T01:22:39.018Z,19.38
2018-08-11T01:25:07.568Z,19.29
2018-08-11T01:27:36.172Z,19.23
2018-08-11T01:30:06.759Z,19.12
2018-08-11T01:32:35.126Z,18.97
2018-08-11T01:35:03.655Z,18.82
2018-08-11T01:37:31.987Z,18.68
2018-08-11T01:40:00.308Z,18.59
2018-08-11T01:42:28.694Z,18.52
2018-08-11T01:44:57.050Z,18.37
2018-08-11T01:47:25.378Z,18.26
2018-08-11T01:49:53.946Z,18.20
2018-08-11T01:52:22.273Z,18.12
2018-08-11T01:54:50.688Z,17.99
2018-08-11T01:57:19.180Z,17.85
2018-08-11T01:59:47.565Z,17.72
2018-08-11T02:02:15.881Z,17.49
2018-08-11T02:04:44.220Z,17.29
2018-08-11T02:07:12.537Z,17.17
2018-08-11T02:09:40.928Z,17.07
2018-08-11T02:12:09.360Z,17.03
2018-08-11T02:14:37.736Z,17.00
2018-08-11T02:17:06.582Z,16.96
2018-08-11T02:19:34.961Z,16.88
2018-08-11T02:22:03.500Z,16.82
2018-08-11T02:24:31.851Z,16.81
2018-08-11T02:27:00.242Z,16.81
2018-08-11T02:29:28.688Z,16.72
2018-08-11T02:31:57.030Z,16.65
2018-08-11T02:34:25.569Z,16.59
2018-08-11T02:36:53.850Z,16.55
2018-08-11T02:39:22.216Z,16.51
2018-08-11T02:41:50.521Z,16.47
2018-08-11T02:44:18.898Z,16.45
2018-08-11T02:46:47.285Z,16.43
2018-08-11T02:49:15.616Z,16.44
2018-08-11T02:51:43.956Z,16.44
2018-08-11T02:54:12.584Z,16.43
2018-08-11T02:56:40.894Z,16.41
2018-08-11T02:59:09.291Z,16.32
2018-08-11T03:01:37.644Z,16.23
2018-08-11T03:04:05.953Z,16.19
2018-08-11T03:06:34.261Z,16.15
2018-08-11T03:09:02.595Z,16.14
2018-08-11T03:11:30.988Z,16.12
2018-08-11T03:13:59.379Z,16.03
2018-08-11T03:16:27.704Z,15.96
2018-08-11T03:18:56.063Z,15.90
2018-08-11T03:21:24.422Z,15.87
2018-08-11T03:23:52.773Z,15.89
2018-08-11T03:26:21.116Z,15.91
2018-08-11T03:28:49.502Z,15.94
2018-08-11T03:31:17.833Z,15.96
2018-08-11T03:33:46.209Z,15.98
2018-08-11T03:36:14.525Z,16.00
2018-08-11T03:38:42.896Z,15.95
2018-08-11T03:41:11.231Z,15.95
2018-08-11T03:43:39.568Z,15.95
2018-08-11T03:46:08.113Z,15.92
2018-08-11T03:48:36.468Z,15.90
2018-08-11T03:51:04.813Z,15.88
2018-08-11T03:53:33.135Z,15.90
2018-08-11T03:56:01.469Z,15.89
2018-08-11T03:58:29.821Z,15.88
2018-08-11T04:00:58.160Z,15.86
2018-08-11T04:03:26.513Z,15.85
2018-08-11T04:05:54.841Z,15.84
2018-08-11T04:08:23.211Z,15.85
2018-08-11T04:10:51.560Z,15.84
2018-08-11T04:13:19.933Z,15.82
2018-08-11T04:15:48.233Z,15.82
2018-08-11T04:18:16.556Z,15.83
2018-08-11T04:20:44.876Z,15.81
2018-08-11T04:23:13.226Z,15.81
2018-08-11T04:25:41.582Z,15.83
2018-08-11T04:28:10.113Z,15.85
2018-08-11T04:30:38.459Z,15.86
2018-08-11T04:33:06.828Z,15.85
2018-08-11T04:35:35.207Z,15.85
2018-08-11T04:38:03.570Z,15.87
2018-08-11T04:40:31.948Z,16.02
2018-08-11T04:43:00.343Z,16.19
2018-08-11T04:45:28.698Z,16.37
2018-08-11T04:47:57.010Z,16.59
2018-08-11T04:50:25.341Z,16.91
2018-08-11T04:52:53.740Z,17.16
2018-08-11T04:55:22.119Z,17.41
2018-08-11T04:57:50.553Z,17.56
2018-08-11T05:00:18.937Z,17.56
2018-08-11T05:02:47.273Z,17.73
2018-08-11T05:05:15.620Z,17.80
2018-08-11T05:07:43.936Z,17.80
2018-08-11T05:10:12.253Z,17.79
2018-08-11T05:12:40.592Z,17.86
2018-08-11T05:15:09.361Z,17.92
2018-08-11T05:17:37.704Z,18.05
2018-08-11T05:20:06.060Z,18.01
2018-08-11T05:22:34.437Z,17.89
2018-08-11T05:25:02.804Z,17.70
2018-08-11T05:27:31.155Z,17.49
2018-08-11T05:29:59.532Z,17.29
2018-08-11T05:32:27.844Z,17.10
2018-08-11T05:34:56.227Z,16.96
2018-08-11T05:37:24.563Z,16.88
2018-08-11T05:39:52.921Z,16.85
2018-08-11T05:42:21.270Z,16.84
2018-08-11T05:44:49.634Z,16.84
2018-08-11T05:47:17.974Z,16.84
2018-08-11T05:49:46.301Z,16.85
2018-08-11T05:52:14.780Z,16.95
2018-08-11T05:54:43.092Z,17.04
2018-08-11T05:57:11.428Z,17.09
2018-08-11T05:59:39.767Z,17.00
2018-08-11T06:02:08.256Z,16.97
2018-08-11T06:04:36.625Z,16.87
2018-08-11T06:07:05.171Z,16.80
2018-08-11T06:09:33.531Z,16.80
2018-08-11T06:12:01.961Z,16.79
2018-08-11T06:14:30.357Z,16.82
2018-08-11T06:16:58.731Z,16.89
2018-08-11T06:19:27.110Z,16.91
2018-08-11T06:21:55.714Z,16.94
2018-08-11T06:24:24.170Z,16.99
2018-08-11T06:26:52.523Z,17.06
2018-08-11T06:29:20.884Z,17.02
2018-08-11T06:31:49.304Z,16.91
2018-08-11T06:34:17.621Z,16.90
2018-08-11T06:36:45.991Z,16.92
2018-08-11T06:39:15.273Z,16.88
2018-08-11T06:41:44.109Z,16.96
2018-08-11T06:44:13.034Z,17.11
2018-08-11T06:46:41.410Z,17.29
2018-08-11T06:49:09.772Z,17.37
2018-08-11T06:51:38.373Z,17.40
2018-08-11T06:54:06.763Z,17.28
2018-08-11T06:56:35.207Z,17.25
2018-08-11T06:59:03.607Z,17.15
2018-08-11T07:03:56.879Z,16.90
2018-08-11T07:06:25.220Z,16.83
2018-08-11T07:08:53.624Z,16.92
2018-08-11T07:11:21.924Z,16.91
2018-08-11T07:13:50.270Z,17.00
2018-08-11T07:16:18.629Z,16.88
2018-08-11T07:18:46.975Z,16.87
2018-08-11T07:21:15.488Z,16.89
2018-08-11T07:23:43.736Z,17.04
2018-08-11T07:26:12.156Z,17.28
2018-08-11T07:28:40.873Z,17.53
2018-08-11T07:31:09.229Z,17.70
2018-08-11T07:33:37.557Z,17.82
2018-08-11T07:36:06.057Z,17.98
2018-08-11T07:38:34.333Z,17.83
2018-08-11T07:41:02.663Z,17.78
2018-08-11T07:43:30.997Z,17.91
2018-08-11T07:45:59.347Z,18.01
2018-08-11T07:48:27.684Z,18.11
2018-08-11T07:50:56.296Z,18.32
2018-08-11T07:53:24.657Z,18.41
2018-08-11T07:55:53.035Z,18.52
2018-08-11T07:58:21.556Z,18.43
2018-08-11T08:00:49.910Z,18.37
2018-08-11T08:03:18.222Z,18.39
2018-08-11T08:05:46.566Z,18.41
2018-08-11T08:08:14.905Z,18.44
2018-08-11T08:10:43.259Z,18.47
2018-08-11T08:13:11.617Z,18.54
2018-08-11T08:15:39.980Z,18.62
2018-08-11T08:18:08.304Z,18.68
2018-08-11T08:20:36.703Z,18.87
2018-08-11T08:23:05.058Z,19.09
2018-08-11T08:25:33.424Z,19.13
2018-08-11T08:28:01.850Z,19.17
2018-08-11T08:30:30.200Z,19.08
2018-08-11T08:32:58.575Z,19.18
2018-08-11T08:35:26.925Z,19.33
2018-08-11T08:37:55.261Z,19.40
2018-08-11T08:40:23.643Z,19.43
2018-08-11T08:42:51.975Z,19.48
2018-08-11T08:45:20.392Z,19.74
2018-08-11T08:47:48.771Z,19.96
2018-08-11T08:50:17.118Z,20.09
2018-08-11T08:52:45.446Z,20.10
2018-08-11T08:55:13.780Z,20.07
2018-08-11T08:57:42.120Z,20.03
2018-08-11T09:00:10.428Z,19.85
2018-08-11T09:02:38.781Z,19.61
2018-08-11T09:05:07.144Z,19.56
2018-08-11T09:07:35.562Z,19.64
2018-08-11T09:10:03.955Z,19.59
2018-08-11T09:12:32.288Z,19.58
2018-08-11T09:15:00.659Z,19.63
2018-08-11T09:17:29.041Z,19.48
2018-08-11T09:19:57.409Z,19.44
2018-08-11T09:22:25.749Z,19.25
2018-08-11T09:24:54.097Z,19.14
2018-08-11T09:27:22.445Z,19.06
2018-08-11T09:29:50.749Z,18.96
2018-08-11T09:32:19.104Z,18.92
2018-08-11T09:34:47.414Z,19.00
2018-08-11T09:37:15.763Z,19.18
2018-08-11T09:39:44.070Z,19.37
2018-08-11T09:42:12.607Z,19.53
2018-08-11T09:44:40.914Z,19.68
2018-08-11T09:47:09.252Z,19.88
2018-08-11T09:49:37.684Z,20.05
2018-08-11T09:52:06.032Z,20.31
2018-08-11T09:54:34.338Z,20.35
2018-08-11T09:57:02.716Z,20.42
2018-08-11T09:59:31.053Z,20.62
2018-08-11T10:02:04.656Z,20.75
2018-08-11T10:04:33.166Z,20.81
2018-08-11T10:07:01.578Z,20.87
2018-08-11T10:09:29.988Z,20.84
2018-08-11T10:11:58.330Z,20.85
2018-08-11T10:14:26.920Z,20.85
2018-08-11T10:16:55.257Z,20.75
2018-08-11T10:19:23.615Z,20.63
2018-08-11T10:21:51.950Z,20.64
2018-08-11T10:24:20.504Z,20.76
2018-08-11T10:26:48.823Z,20.90
2018-08-11T10:29:17.187Z,20.91
2018-08-11T10:31:45.542Z,20.96
2018-08-11T10:34:13.899Z,20.64
2018-08-11T10:36:42.276Z,20.38
2018-08-11T10:39:12.334Z,20.27
2018-08-11T10:41:41.025Z,20.18
2018-08-11T10:44:10.244Z,20.31
2018-08-11T10:46:38.851Z,20.39
2018-08-11T10:49:07.428Z,20.46
2018-08-11T10:51:36.221Z,20.69
2018-08-11T10:54:04.544Z,20.92
2018-08-11T10:56:33.132Z,21.15
2018-08-11T10:59:01.460Z,21.41
2018-08-11T11:01:29.824Z,21.68
2018-08-11T11:03:58.145Z,21.95
2018-08-11T11:06:26.493Z,21.85
2018-08-11T11:08:54.784Z,21.73
2018-08-11T11:11:23.147Z,21.57
2018-08-11T11:13:51.512Z,21.30
2018-08-11T11:16:19.882Z,21.19
2018-08-11T11:18:48.267Z,21.21
2018-08-11T11:21:16.615Z,21.32
2018-08-11T11:23:44.956Z,21.39
2018-08-11T11:26:13.291Z,21.42
2018-08-11T11:28:41.657Z,21.42
2018-08-11T11:31:10.012Z,21.45
2018-08-11T11:33:38.337Z,21.54
2018-08-11T11:36:06.685Z,21.59
2018-08-11T11:38:35.044Z,21.62
2018-08-11T11:41:03.411Z,21.58
2018-08-11T11:43:31.771Z,21.55
2018-08-11T11:46:00.134Z,21.50
2018-08-11T11:48:28.476Z,21.49
2018-08-11T11:50:56.840Z,21.51
2018-08-11T11:53:25.169Z,21.60
2018-08-11T11:55:53.696Z,21.69
2018-08-11T11:58:22.055Z,21.59
2018-08-11T12:00:50.369Z,21.57
2018-08-11T12:03:18.710Z,21.68
2018-08-11T12:05:47.042Z,21.86
2018-08-11T12:08:15.387Z,21.87
2018-08-11T12:10:43.685Z,21.84
2018-08-11T12:13:12.001Z,21.75
2018-08-11T12:15:40.351Z,21.58
2018-08-11T12:18:08.673Z,21.71
2018-08-11T12:20:37.093Z,21.68
2018-08-11T12:23:05.510Z,21.52
2018-08-11T12:25:33.839Z,21.49
2018-08-11T12:28:02.175Z,21.40
2018-08-11T12:30:30.496Z,21.21
2018-08-11T12:32:58.842Z,21.34
2018-08-11T12:35:27.150Z,21.56
2018-08-11T12:37:55.476Z,21.74
2018-08-11T12:40:23.801Z,21.89
2018-08-11T12:42:52.167Z,22.00
2018-08-11T12:45:20.552Z,22.05
2018-08-11T12:47:48.906Z,22.11
2018-08-11T12:50:17.273Z,22.21
2018-08-11T12:52:45.602Z,22.39
2018-08-11T12:55:13.943Z,22.54
2018-08-11T12:57:42.281Z,22.45
2018-08-11T13:00:10.993Z,22.36
2018-08-11T13:02:39.442Z,22.27
2018-08-11T13:05:07.852Z,22.16
2018-08-11T13:07:36.217Z,22.03
2018-08-11T13:10:05.265Z,21.97
2018-08-11T13:12:33.626Z,22.12
2018-08-11T13:15:01.959Z,22.18
2018-08-11T13:17:30.264Z,22.13
2018-08-11T13:19:58.596Z,22.06
2018-08-11T13:22:26.916Z,21.96
2018-08-11T13:24:55.243Z,21.94
2018-08-11T13:27:23.655Z,22.08
2018-08-11T13:29:51.940Z,22.28
2018-08-11T13:32:20.300Z,22.34
2018-08-11T13:34:48.602Z,22.32
2018-08-11T13:37:16.932Z,22.38
2018-08-11T13:39:50.374Z,22.47
2018-08-11T13:42:19.227Z,22.57
2018-08-11T13:44:47.566Z,22.56
2018-08-11T13:47:15.973Z,22.52
2018-08-11T13:49:44.504Z,22.56
2018-08-11T13:52:12.878Z,22.62
2018-08-11T13:54:41.407Z,22.48
2018-08-11T13:57:09.757Z,22.29
2018-08-11T13:59:38.185Z,22.12
2018-08-11T14:02:06.677Z,22.06
2018-08-11T14:04:35.339Z,22.13
2018-08-11T14:07:03.784Z,22.28
2018-08-11T14:09:32.319Z,22.47
2018-08-11T14:12:00.652Z,22.71
2018-08-11T14:14:29.083Z,22.82
2018-08-11T14:16:57.420Z,22.75
2018-08-11T14:19:25.730Z,22.76
2018-08-11T14:21:54.081Z,22.85
2018-08-11T14:24:22.443Z,22.86
2018-08-11T14:26:50.775Z,22.76
2018-08-11T14:29:19.124Z,22.71
2018-08-11T14:31:47.442Z,22.66
2018-08-11T14:34:15.829Z,22.50
2018-08-11T14:36:44.173Z,22.39
2018-08-11T14:39:12.547Z,22.27
2018-08-11T14:41:40.867Z,22.20
2018-08-11T14:44:09.440Z,22.21
2018-08-11T14:46:37.792Z,22.26
2018-08-11T14:49:06.699Z,22.35
2018-08-11T14:51:35.383Z,22.41
2018-08-11T14:54:03.880Z,22.44
2018-08-11T14:56:32.181Z,22.40
2018-08-11T14:59:00.625Z,22.50
2018-08-11T15:01:28.940Z,22.66
2018-08-11T15:03:57.315Z,22.82
2018-08-11T15:06:25.657Z,22.92
2018-08-11T15:08:54.232Z,22.88
2018-08-11T15:11:22.558Z,22.77
2018-08-11T15:13:50.893Z,22.63
2018-08-11T15:16:19.256Z,22.61
2018-08-11T15:18:47.615Z,22.58
2018-08-11T15:21:15.996Z,22.53
2018-08-11T15:23:44.310Z,22.52
2018-08-11T15:26:12.697Z,22.51
2018-08-11T15:28:41.074Z,22.44
2018-08-11T15:31:09.395Z,22.40
2018-08-11T15:33:37.783Z,22.37
2018-08-11T15:36:06.115Z,22.35
2018-08-11T15:38:34.425Z,22.38
2018-08-11T15:41:02.750Z,22.34
2018-08-11T15:43:31.095Z,22.26
2018-08-11T15:45:59.448Z,22.19
2018-08-11T15:48:27.826Z,22.19
2018-08-11T15:50:56.253Z,22.20
2018-08-11T15:53:24.617Z,22.27
2018-08-11T15:55:53.240Z,22.32
2018-08-11T15:58:21.590Z,22.36
2018-08-11T16:00:49.913Z,22.34
2018-08-11T16:03:18.279Z,22.27
2018-08-11T16:05:46.644Z,22.19
2018-08-11T16:08:15.107Z,22.14
2018-08-11T16:10:43.730Z,22.10
2018-08-11T16:13:12.056Z,22.09
2018-08-11T16:15:40.401Z,22.12
2018-08-11T16:18:08.738Z,22.13
2018-08-11T16:20:37.143Z,22.18
2018-08-11T16:23:05.455Z,22.18
2018-08-11T16:25:33.841Z,22.15
2018-08-11T16:28:02.176Z,22.11
2018-08-11T16:30:30.496Z,22.16
2018-08-11T16:32:58.801Z,22.21
2018-08-11T16:35:27.124Z,22.22
2018-08-11T16:37:55.436Z,22.14
2018-08-11T16:40:23.786Z,22.07
2018-08-11T16:42:52.097Z,22.06
2018-08-11T16:45:20.458Z,22.02
2018-08-11T16:47:48.798Z,21.97
2018-08-11T16:50:17.126Z,21.93
2018-08-11T16:52:45.441Z,21.92
2018-08-11T16:55:13.822Z,21.91
2018-08-11T16:57:42.172Z,21.90
2018-08-11T17:00:12.300Z,21.87
2018-08-11T17:02:40.949Z,21.88
2018-08-11T17:05:09.277Z,21.86
2018-08-11T17:07:37.596Z,21.87
2018-08-11T17:10:07.422Z,21.85
2018-08-11T17:12:36.026Z,21.83
2018-08-11T17:15:04.448Z,21.76
2018-08-11T17:17:32.813Z,21.71
2018-08-11T17:20:01.183Z,21.64
2018-08-11T17:22:29.735Z,21.60
2018-08-11T17:24:58.057Z,21.57
2018-08-11T17:27:26.406Z,21.54
2018-08-11T17:29:54.753Z,21.48
2018-08-11T17:32:23.114Z,21.41
2018-08-11T17:34:51.465Z,21.35
2018-08-11T17:37:19.990Z,21.29
2018-08-11T17:39:48.366Z,21.24
2018-08-11T17:42:16.679Z,21.17
2018-08-11T17:44:44.980Z,21.14
2018-08-11T17:47:13.368Z,21.09
2018-08-11T17:49:41.750Z,21.05
2018-08-11T17:52:10.076Z,20.98
2018-08-11T17:54:38.393Z,20.96
2018-08-11T17:57:06.908Z,20.94
2018-08-11T17:59:35.213Z,20.93
2018-08-11T18:02:03.586Z,20.94
2018-08-11T18:04:31.905Z,20.93
2018-08-11T18:07:00.316Z,20.91
2018-08-11T18:09:28.624Z,20.88
2018-08-11T18:11:56.956Z,20.87
2018-08-11T18:14:25.304Z,20.85
2018-08-11T18:16:53.684Z,20.84
2018-08-11T18:19:22.009Z,20.81
2018-08-11T18:21:50.891Z,20.75
2018-08-11T18:24:19.283Z,20.70
2018-08-11T18:26:47.638Z,20.64
2018-08-11T18:29:16.071Z,20.62
2018-08-11T18:31:44.387Z,20.56
2018-08-11T18:34:12.767Z,20.54
2018-08-11T18:36:41.072Z,20.47
2018-08-11T18:39:11.488Z,20.42
2018-08-11T18:41:39.923Z,20.38
2018-08-11T18:44:08.245Z,20.34
2018-08-11T18:46:36.787Z,20.28
2018-08-11T18:49:05.233Z,20.24
2018-08-11T18:51:33.628Z,20.18
2018-08-11T18:54:02.167Z,20.13
2018-08-11T18:56:30.606Z,20.08
2018-08-11T18:58:58.954Z,20.00
2018-08-11T19:01:27.366Z,19.93
2018-08-11T19:03:55.702Z,19.86
2018-08-11T19:06:24.033Z,19.78
2018-08-11T19:08:52.456Z,19.69
2018-08-11T19:11:20.937Z,19.62
2018-08-11T19:13:49.310Z,19.52
2018-08-11T19:16:17.658Z,19.44
2018-08-11T19:18:46.025Z,19.38
2018-08-11T19:21:14.360Z,19.32
2018-08-11T19:23:42.720Z,19.25
2018-08-11T19:26:11.108Z,19.17
2018-08-11T19:28:39.455Z,19.11
2018-08-11T19:31:07.832Z,19.06
2018-08-11T19:33:36.338Z,18.99
2018-08-11T19:36:04.683Z,18.93
2018-08-11T19:38:32.995Z,18.84
2018-08-11T19:41:01.342Z,18.73
2018-08-11T19:43:29.676Z,18.66
2018-08-11T19:45:58.042Z,18.57
2018-08-11T19:48:26.352Z,18.47
2018-08-11T19:50:54.689Z,18.38
2018-08-11T19:53:23.037Z,18.30
2018-08-11T19:55:51.422Z,18.21
2018-08-11T19:58:19.844Z,18.13
2018-08-11T20:00:48.209Z,18.10
2018-08-11T20:03:16.784Z,18.05
2018-08-11T20:05:45.134Z,18.00
2018-08-11T20:08:13.579Z,17.93
2018-08-11T20:10:41.893Z,17.88
2018-08-11T20:13:10.244Z,17.83
2018-08-11T20:15:38.631Z,17.77
2018-08-11T20:18:06.950Z,17.71
2018-08-11T20:20:35.335Z,17.66
2018-08-11T20:23:03.702Z,17.62
2018-08-11T20:25:32.208Z,17.56
2018-08-11T20:28:00.469Z,17.49
2018-08-11T20:30:28.806Z,17.43
2018-08-11T20:32:57.217Z,17.39
2018-08-11T20:35:25.609Z,17.35
2018-08-11T20:37:54.026Z,17.31
2018-08-11T20:40:22.362Z,17.25
2018-08-11T20:42:50.685Z,17.19
2018-08-11T20:45:19.087Z,17.12
2018-08-11T20:47:47.461Z,17.07
2018-08-11T20:50:15.820Z,17.03
2018-08-11T20:52:44.264Z,16.97
2018-08-11T20:55:12.677Z,16.93
2018-08-11T20:57:41.029Z,16.90
2018-08-11T21:00:11.486Z,16.85
2018-08-11T21:02:39.907Z,16.80
2018-08-11T21:05:12.038Z,16.74
2018-08-11T21:07:40.691Z,16.70
2018-08-11T21:10:11.969Z,16.64
2018-08-11T21:12:40.731Z,16.59
2018-08-11T21:15:09.925Z,16.55
2018-08-11T21:17:38.625Z,16.50
2018-08-11T21:20:08.762Z,16.46
2018-08-11T21:22:37.231Z,16.44
2018-08-11T21:25:06.680Z,16.39
2018-08-11T21:27:35.225Z,16.33
2018-08-11T21:30:03.700Z,16.27
2018-08-11T21:32:32.041Z,16.23
2018-08-11T21:35:00.459Z,16.19
2018-08-11T21:37:28.857Z,16.15
2018-08-11T21:39:57.245Z,16.09
2018-08-11T21:42:25.634Z,16.05
2018-08-11T21:44:53.997Z,16.03
2018-08-11T21:47:22.351Z,16.04
2018-08-11T21:49:50.819Z,16.02
2018-08-11T21:52:19.183Z,16.02
2018-08-11T21:54:47.631Z,16.02
2018-08-11T21:57:15.968Z,15.99
2018-08-11T21:59:44.453Z,15.99
2018-08-11T22:02:12.824Z,15.99
2018-08-11T22:04:41.088Z,15.99
2018-08-11T22:07:09.430Z,15.97
2018-08-11T22:09:37.882Z,15.94
2018-08-11T22:12:06.262Z,15.88
2018-08-11T22:14:34.685Z,15.80
2018-08-11T22:17:03.000Z,15.74
2018-08-11T22:19:31.309Z,15.74
2018-08-11T22:21:59.670Z,15.72
2018-08-11T22:24:28.063Z,15.71
2018-08-11T22:26:56.743Z,15.69
2018-08-11T22:29:25.304Z,15.71
2018-08-11T22:31:53.676Z,15.72
2018-08-11T22:34:22.077Z,15.73
2018-08-11T22:36:50.398Z,15.73
2018-08-11T22:39:18.765Z,15.72
2018-08-11T22:41:47.099Z,15.71
2018-08-11T22:44:15.452Z,15.69
2018-08-11T22:46:43.846Z,15.65
2018-08-11T22:49:12.186Z,15.61
2018-08-11T22:51:40.561Z,15.60
2018-08-11T22:54:09.022Z,15.60
2018-08-11T22:56:37.359Z,15.57
2018-08-11T22:59:05.776Z,15.55
2018-08-11T23:01:34.140Z,15.54
2018-08-11T23:04:02.509Z,15.54
2018-08-11T23:06:30.899Z,15.56
2018-08-11T23:08:59.258Z,15.54
2018-08-11T23:11:27.591Z,15.54
2018-08-11T23:13:55.996Z,15.51
2018-08-11T23:16:24.319Z,15.47
2018-08-11T23:18:53.042Z,15.40
2018-08-11T23:21:21.550Z,15.34
2018-08-11T23:23:49.971Z,15.30
2018-08-11T23:26:18.454Z,15.25
2018-08-11T23:28:46.793Z,15.22
2018-08-11T23:31:15.195Z,15.20
2018-08-11T23:33:43.531Z,15.19
2018-08-11T23:36:11.912Z,15.19
2018-08-11T23:38:40.267Z,15.18
2018-08-11T23:41:08.588Z,15.14
2018-08-11T23:43:36.963Z,15.08
2018-08-11T23:46:05.500Z,15.09
2018-08-11T23:48:33.830Z,15.12
2018-08-11T23:51:02.236Z,15.11
2018-08-11T23:53:30.589Z,15.10
2018-08-11T23:55:58.890Z,15.11
2018-08-11T23:58:27.296Z,15.09
